Jacksonville, Illinois
Current Conditions -  °F | °C
As of 9:55 PM on Saturday 20 Dec 2014 (Local Time) from KIJX Reporting Station
Overcast Overcast  
Wind Chill: 35°   Ceiling: 3200
Heat Index: 39°   Visibility: 7mi
Dew Point: 34°   Wind: 6mph
Humidity: 82%   Direction: 160°SSE
Pressure: 30.23"   Gusts: NA
Location:  39.75°N, 90.23°W
Report Text: KIJX 210355Z AUTO 16005KT 7SM OVC032 04/01 A3023 RMK AO2 T00400012
Loading
Personal Weather Stations






























Interactive Weather Map New forecast layout! Learn more

10-Day Weather Forecast

Advertisements
Track Severe Weather on mobile